createdAt,value
2022-12-05T00:01:24.362Z,101302.88
2022-12-05T00:03:26.239Z,101304.63
2022-12-05T00:05:27.831Z,101299.63
2022-12-05T00:07:29.592Z,101301.38
2022-12-05T00:09:31.000Z,101304.94
2022-12-05T00:11:37.452Z,101299.72
2022-12-05T00:13:39.499Z,101301.38
2022-12-05T00:15:42.428Z,101301.34
2022-12-05T00:17:44.043Z,101297.75
2022-12-05T00:19:45.771Z,101295.81
2022-12-05T00:21:47.474Z,101297.84
2022-12-05T00:23:49.881Z,101297.88
2022-12-05T00:25:51.469Z,101304.88
2022-12-05T00:27:53.204Z,101300.59
2022-12-05T00:29:54.847Z,101303.25
2022-12-05T00:31:57.999Z,101304.03
2022-12-05T00:34:01.011Z,101306.53
2022-12-05T00:36:02.892Z,101310.06
2022-12-05T00:38:06.724Z,101307.47
2022-12-05T00:40:09.474Z,101314.47
2022-12-05T00:42:11.136Z,101321.63
2022-12-05T00:44:13.183Z,101309.25
2022-12-05T00:46:18.494Z,101310.03
2022-12-05T00:48:21.548Z,101306.53
2022-12-05T00:50:23.165Z,101304.88
2022-12-05T00:52:24.848Z,101308.38
2022-12-05T00:54:26.747Z,101303.13
2022-12-05T00:56:30.056Z,101304.81
2022-12-05T00:58:32.307Z,101307.38
2022-12-05T01:00:34.222Z,101304.84
2022-12-05T01:02:35.892Z,101301.44
2022-12-05T01:04:38.893Z,101300.56
2022-12-05T01:06:41.701Z,101294.44
2022-12-05T01:08:43.809Z,101291.75
2022-12-05T01:10:52.940Z,101294.22
2022-12-05T01:12:54.521Z,101302.97
2022-12-05T01:14:56.181Z,101284.59
2022-12-05T01:16:57.892Z,101290.72
2022-12-05T01:19:00.747Z,101298.91
2022-12-05T01:21:06.589Z,101292.66
2022-12-05T01:23:08.331Z,101282.25
2022-12-05T01:25:09.899Z,101286.69
2022-12-05T01:27:11.480Z,101288.47
2022-12-05T01:29:15.683Z,101280.53
2022-12-05T01:31:22.133Z,101283.09
2022-12-05T01:33:23.782Z,101276.13
2022-12-05T01:35:25.614Z,101274.38
2022-12-05T01:37:28.353Z,101278.75
2022-12-05T01:39:29.995Z,101271.75
2022-12-05T01:41:33.911Z,101271.75
2022-12-05T01:43:53.905Z,101273.50
2022-12-05T01:45:55.698Z,101271.75
2022-12-05T01:47:57.286Z,101268.03
2022-12-05T01:50:00.798Z,101265.47
2022-12-05T01:52:05.975Z,101269.94
2022-12-05T01:54:10.180Z,101258.47
2022-12-05T01:56:13.341Z,101269.94
2022-12-05T01:58:15.933Z,101262.84
2022-12-05T02:00:20.898Z,101275.19
2022-12-05T02:02:22.853Z,101262.84
2022-12-05T02:04:24.780Z,101264.63
2022-12-05T02:06:27.599Z,101261.22
2022-12-05T02:08:29.546Z,101262.00
2022-12-05T02:10:36.017Z,101269.13
2022-12-05T02:12:39.210Z,101274.41
2022-12-05T02:14:51.404Z,101262.97
2022-12-05T02:17:02.978Z,101266.47
2022-12-05T02:19:25.634Z,101262.97
2022-12-05T02:21:45.643Z,101261.88
2022-12-05T02:24:02.800Z,101263.66
2022-12-05T02:26:30.778Z,101256.50
2022-12-05T02:29:05.547Z,101270.59
2022-12-05T02:31:14.849Z,101271.38
2022-12-05T02:33:21.905Z,101269.63
2022-12-05T02:35:33.060Z,101274.75
2022-12-05T02:37:43.114Z,101262.75
2022-12-05T02:39:53.527Z,101271.53
2022-12-05T02:42:02.254Z,101262.78
2022-12-05T02:44:08.487Z,101259.19
2022-12-05T02:46:16.509Z,101265.47
2022-12-05T02:48:18.819Z,101260.03
2022-12-05T02:50:23.373Z,101256.41
2022-12-05T02:52:26.534Z,101257.38
2022-12-05T02:54:31.956Z,101245.16
2022-12-05T02:56:36.138Z,101255.69
2022-12-05T02:58:43.476Z,101248.69
2022-12-05T03:00:48.801Z,101244.16
2022-12-05T03:02:56.499Z,101255.66
2022-12-05T03:05:08.736Z,101236.47
2022-12-05T03:07:12.935Z,101250.38
2022-12-05T03:09:20.188Z,101238.13
2022-12-05T03:11:22.218Z,101243.41
2022-12-05T03:13:28.010Z,101237.28
2022-12-05T03:15:33.764Z,101240.72
2022-12-05T03:17:41.240Z,101238.94
2022-12-05T03:19:50.034Z,101239.75
2022-12-05T03:21:58.958Z,101243.28
2022-12-05T03:24:03.708Z,101249.31
2022-12-05T03:26:15.803Z,101245.81
2022-12-05T03:28:23.276Z,101243.19
2022-12-05T03:30:25.102Z,101241.38
2022-12-05T03:32:31.666Z,101243.13
2022-12-05T03:34:48.547Z,101242.97
2022-12-05T03:36:53.451Z,101248.34
2022-12-05T03:39:02.805Z,101248.38
2022-12-05T03:41:09.353Z,101239.56
2022-12-05T03:43:18.671Z,101244.72
2022-12-05T03:45:28.124Z,101246.50
2022-12-05T03:47:36.723Z,101240.38
2022-12-05T03:49:43.621Z,101233.25
2022-12-05T03:51:53.996Z,101243.84
2022-12-05T03:54:00.175Z,101235.13
2022-12-05T03:56:07.263Z,101233.31
2022-12-05T03:58:12.684Z,101235.13
2022-12-05T04:00:17.349Z,101236.03
2022-12-05T04:02:24.703Z,101243.03
2022-12-05T04:04:31.068Z,101242.22
2022-12-05T04:06:35.763Z,101238.66
2022-12-05T04:08:44.043Z,101248.09
2022-12-05T04:10:49.082Z,101234.06
2022-12-05T04:12:54.431Z,101243.63
2022-12-05T04:14:59.988Z,101241.13
2022-12-05T04:17:06.363Z,101239.25
2022-12-05T04:19:11.839Z,101248.84
2022-12-05T04:21:16.149Z,101248.75
2022-12-05T04:23:17.961Z,101234.75
2022-12-05T04:25:20.908Z,101236.47
2022-12-05T04:27:28.140Z,101232.97
2022-12-05T04:29:36.955Z,101237.50
2022-12-05T04:31:42.829Z,101246.41
2022-12-05T04:33:48.862Z,101241.09
2022-12-05T04:35:54.832Z,101239.25
2022-12-05T04:38:04.315Z,101241.97
2022-12-05T04:40:11.939Z,101232.41
2022-12-05T04:42:18.988Z,101237.66
2022-12-05T04:44:25.620Z,101238.56
2022-12-05T04:46:27.684Z,101237.72
2022-12-05T04:48:29.860Z,101232.38
2022-12-05T04:50:34.616Z,101243.03
2022-12-05T04:52:37.623Z,101235.06
2022-12-05T04:54:44.203Z,101238.41
2022-12-05T04:56:48.328Z,101240.06
2022-12-05T04:58:51.421Z,101240.91
2022-12-05T05:00:58.440Z,101240.88
2022-12-05T05:03:06.419Z,101237.41
2022-12-05T05:05:14.123Z,101235.72
2022-12-05T05:07:15.951Z,101240.81
2022-12-05T05:09:17.702Z,101239.91
2022-12-05T05:11:19.806Z,101236.59
2022-12-05T05:13:21.389Z,101240.03
2022-12-05T05:15:24.385Z,101236.47
2022-12-05T05:17:25.974Z,101238.25
2022-12-05T05:19:27.565Z,101239.06
2022-12-05T05:21:31.546Z,101242.56
2022-12-05T05:23:33.104Z,101239.91
2022-12-05T05:25:34.775Z,101237.34
2022-12-05T05:27:36.403Z,101233.75
2022-12-05T05:29:37.981Z,101246.09
2022-12-05T05:31:41.687Z,101235.59
2022-12-05T05:33:43.471Z,101240.75
2022-12-05T05:35:44.838Z,101243.38
2022-12-05T05:37:46.381Z,101243.31
2022-12-05T05:39:47.923Z,101239.84
2022-12-05T05:41:49.546Z,101241.72
2022-12-05T05:43:51.998Z,101238.25
2022-12-05T05:45:53.575Z,101235.47
2022-12-05T05:47:56.640Z,101239.03
2022-12-05T05:49:58.488Z,101242.63
2022-12-05T05:52:00.467Z,101244.44
2022-12-05T05:54:02.470Z,101241.78
2022-12-05T05:56:04.867Z,101246.13
2022-12-05T05:58:06.550Z,101250.59
2022-12-05T06:00:09.326Z,101247.88
2022-12-05T06:02:10.984Z,101247.94
2022-12-05T06:04:14.039Z,101249.72
2022-12-05T06:06:15.851Z,101247.03
2022-12-05T06:08:17.288Z,101243.66
2022-12-05T06:10:19.044Z,101248.03
2022-12-05T06:12:20.776Z,101250.63
2022-12-05T06:14:22.226Z,101250.66
2022-12-05T06:16:24.257Z,101249.81
2022-12-05T06:18:26.041Z,101259.31
2022-12-05T06:20:29.082Z,101257.38
2022-12-05T06:22:30.721Z,101255.66
2022-12-05T06:24:32.322Z,101252.88
2022-12-05T06:26:33.916Z,101264.31
2022-12-05T06:28:35.620Z,101258.16
2022-12-05T06:30:38.619Z,101262.56
2022-12-05T06:32:40.180Z,101242.56
2022-12-05T06:34:41.827Z,101263.50
2022-12-05T06:36:44.919Z,101246.09
2022-12-05T06:38:46.525Z,101266.13
2022-12-05T06:40:48.070Z,101254.75
2022-12-05T06:42:49.742Z,101269.56
2022-12-05T06:44:51.359Z,101266.97
2022-12-05T06:46:53.432Z,101247.75
2022-12-05T06:48:56.482Z,101267.78
2022-12-05T06:50:58.069Z,101280.81
2022-12-05T06:53:01.000Z,101277.31
2022-12-05T06:55:02.792Z,101273.75
2022-12-05T06:57:04.148Z,101281.75
2022-12-05T06:59:06.077Z,101273.59
2022-12-05T07:01:11.797Z,101287.16
2022-12-05T07:03:13.399Z,101287.41
2022-12-05T07:05:15.153Z,101279.94
2022-12-05T07:07:16.556Z,101286.28
2022-12-05T07:09:23.376Z,101289.38
2022-12-05T07:11:25.673Z,101287.84
2022-12-05T07:13:27.313Z,101284.50
2022-12-05T07:15:28.868Z,101284.00
2022-12-05T07:17:30.489Z,101298.50
2022-12-05T07:19:32.090Z,101298.53
2022-12-05T07:21:33.675Z,101303.25
2022-12-05T07:23:35.454Z,101299.59
2022-12-05T07:25:41.332Z,101297.75
2022-12-05T07:27:42.873Z,101289.16
2022-12-05T07:29:44.450Z,101296.25
2022-12-05T07:31:46.288Z,101293.59
2022-12-05T07:33:48.539Z,101292.09
2022-12-05T07:35:50.110Z,101304.47
2022-12-05T07:37:51.726Z,101297.59
2022-12-05T07:39:53.572Z,101274.13
2022-12-05T07:41:56.632Z,101290.53
2022-12-05T07:43:59.671Z,101291.34
2022-12-05T07:46:02.508Z,101302.00
2022-12-05T07:48:04.589Z,101293.16
2022-12-05T07:50:07.250Z,101298.41
2022-12-05T07:52:08.772Z,101297.47
2022-12-05T07:54:10.369Z,101286.97
2022-12-05T07:56:14.933Z,101286.88
2022-12-05T07:58:18.388Z,101297.50
2022-12-05T08:00:21.438Z,101286.94
2022-12-05T08:02:23.441Z,101287.88
2022-12-05T08:04:25.057Z,101294.84
2022-12-05T08:06:28.097Z,101295.06
2022-12-05T08:08:29.700Z,101297.66
2022-12-05T08:10:31.225Z,101298.47
2022-12-05T08:12:32.751Z,101299.44
2022-12-05T08:14:35.922Z,101292.44
2022-12-05T08:16:37.527Z,101295.09
2022-12-05T08:18:39.647Z,101296.91
2022-12-05T08:20:41.266Z,101296.78
2022-12-05T08:22:42.803Z,101294.88
2022-12-05T08:24:44.313Z,101298.38
2022-12-05T08:26:45.967Z,101289.69
2022-12-05T08:28:51.277Z,101286.25
2022-12-05T08:30:54.694Z,101300.31
2022-12-05T08:32:56.352Z,101309.00
2022-12-05T08:34:58.325Z,101298.47
2022-12-05T08:36:59.931Z,101302.00
2022-12-05T08:39:04.242Z,101298.25
2022-12-05T08:41:08.062Z,101303.41
2022-12-05T08:43:09.838Z,101307.72
2022-12-05T08:45:11.434Z,101296.34
2022-12-05T08:47:14.562Z,101307.34
2022-12-05T08:49:17.052Z,101300.22
2022-12-05T08:51:18.667Z,101300.25
2022-12-05T08:53:20.813Z,101300.13
2022-12-05T08:55:22.501Z,101301.22
2022-12-05T08:57:23.979Z,101295.22
2022-12-05T08:59:25.631Z,101300.31
2022-12-05T09:01:27.580Z,101300.63
2022-12-05T09:03:30.677Z,101301.63
2022-12-05T09:05:32.914Z,101300.00
2022-12-05T09:07:34.811Z,101307.00
2022-12-05T09:09:36.346Z,101307.16
2022-12-05T09:11:40.234Z,101304.53
2022-12-05T09:13:42.940Z,101301.25
2022-12-05T09:15:44.533Z,101302.16
2022-12-05T09:17:46.087Z,101305.53
2022-12-05T09:19:52.368Z,101293.22
2022-12-05T09:21:54.299Z,101306.28
2022-12-05T09:23:58.009Z,101307.97
2022-12-05T09:25:59.507Z,101308.00
2022-12-05T09:28:01.106Z,101298.31
2022-12-05T09:30:03.245Z,101301.69
2022-12-05T09:32:05.168Z,101301.91
2022-12-05T09:34:06.741Z,101300.00
2022-12-05T09:36:12.871Z,101299.00
2022-12-05T09:38:14.530Z,101301.59
2022-12-05T09:40:17.477Z,101300.06
2022-12-05T09:42:33.183Z,101299.94
2022-12-05T09:44:44.047Z,101299.06
2022-12-05T09:46:54.425Z,101300.09
2022-12-05T09:48:58.325Z,101293.16
2022-12-05T09:51:03.080Z,101297.38
2022-12-05T09:53:13.674Z,101297.28
2022-12-05T09:55:18.216Z,101301.72
2022-12-05T09:57:33.675Z,101302.56
2022-12-05T09:59:35.995Z,101292.69
2022-12-05T10:01:41.459Z,101296.38
2022-12-05T10:03:47.575Z,101296.25
2022-12-05T10:05:58.552Z,101291.84
2022-12-05T10:08:06.845Z,101290.78
2022-12-05T10:10:25.092Z,101291.72
2022-12-05T10:12:43.528Z,101288.28
2022-12-05T10:14:58.823Z,101289.06
2022-12-05T10:17:07.354Z,101283.78
2022-12-05T10:19:15.603Z,101286.34
2022-12-05T10:21:21.653Z,101287.19
2022-12-05T10:23:55.629Z,101297.69
2022-12-05T10:25:56.561Z,101283.53
2022-12-05T10:28:01.278Z,101290.56
2022-12-05T10:30:05.759Z,101285.34
2022-12-05T10:32:14.854Z,101292.34
2022-12-05T10:34:23.156Z,101285.41
2022-12-05T10:36:24.983Z,101277.59
2022-12-05T10:38:29.196Z,101284.34
2022-12-05T10:40:36.902Z,101286.91
2022-12-05T10:42:39.845Z,101289.50
2022-12-05T10:44:41.853Z,101275.44
2022-12-05T10:46:43.727Z,101294.94
2022-12-05T10:48:45.442Z,101285.22
2022-12-05T10:50:48.744Z,101286.75
2022-12-05T10:52:52.578Z,101290.47
2022-12-05T10:54:59.050Z,101279.59
2022-12-05T10:57:00.996Z,101286.69
2022-12-05T10:59:04.622Z,101286.09
2022-12-05T11:01:09.327Z,101283.38
2022-12-05T11:03:24.976Z,101284.13
2022-12-05T11:05:31.450Z,101277.88
2022-12-05T11:07:36.642Z,101278.00
2022-12-05T11:09:38.867Z,101274.25
2022-12-05T11:11:40.497Z,101282.91
2022-12-05T11:13:52.937Z,101270.34
2022-12-05T11:15:55.996Z,101280.69
2022-12-05T11:18:16.669Z,101282.34
2022-12-05T11:20:37.953Z,101283.50
2022-12-05T11:22:41.320Z,101280.94
2022-12-05T11:24:45.973Z,101278.09
2022-12-05T11:26:47.503Z,101282.44
2022-12-05T11:28:49.104Z,101274.13
2022-12-05T11:30:58.762Z,101285.72
2022-12-05T11:33:18.837Z,101283.34
2022-12-05T11:35:26.051Z,101286.28
2022-12-05T11:37:32.145Z,101278.28
2022-12-05T11:39:33.840Z,101273.75
2022-12-05T11:41:42.631Z,101282.44
2022-12-05T11:44:03.768Z,101270.88
2022-12-05T11:46:22.290Z,101276.75
2022-12-05T11:48:38.918Z,101261.66
2022-12-05T11:50:46.019Z,101272.00
2022-12-05T11:53:00.596Z,101262.41
2022-12-05T11:55:15.073Z,101251.59
2022-12-05T11:57:27.370Z,101250.91
2022-12-05T11:59:58.240Z,101255.19
2022-12-05T12:02:14.241Z,101250.97
2022-12-05T12:04:37.950Z,101246.22
2022-12-05T12:06:50.253Z,101243.41
2022-12-05T12:09:11.754Z,101248.75
2022-12-05T12:11:23.127Z,101261.25
2022-12-05T12:13:36.775Z,101243.22
2022-12-05T12:15:58.594Z,101252.91
2022-12-05T12:18:12.444Z,101245.59
2022-12-05T12:20:30.657Z,101247.31
2022-12-05T12:22:50.157Z,101245.47
2022-12-05T12:25:08.109Z,101242.91
2022-12-05T12:27:21.140Z,101243.59
2022-12-05T12:29:36.950Z,101245.28
2022-12-05T12:31:51.580Z,101245.28
2022-12-05T12:34:05.354Z,101241.72
2022-12-05T12:36:16.642Z,101240.94
2022-12-05T12:38:48.186Z,101242.84
2022-12-05T12:40:54.811Z,101247.06
2022-12-05T12:43:07.433Z,101236.38
2022-12-05T12:45:32.716Z,101243.75
2022-12-05T12:47:47.758Z,101233.19
2022-12-05T12:50:03.152Z,101231.38
2022-12-05T12:52:11.923Z,101227.91
2022-12-05T12:54:54.857Z,101220.31
2022-12-05T12:56:59.733Z,101231.94
2022-12-05T12:59:11.242Z,101226.63
2022-12-05T13:01:22.960Z,101228.50
2022-12-05T13:03:28.380Z,101222.50
2022-12-05T13:05:38.183Z,101230.28
2022-12-05T13:07:45.809Z,101227.56
2022-12-05T13:09:52.164Z,101219.34
2022-12-05T13:11:56.012Z,101226.31
2022-12-05T13:14:00.940Z,101222.00
2022-12-05T13:16:06.475Z,101227.09
2022-12-05T13:18:16.123Z,101227.19
2022-12-05T13:20:21.583Z,101225.59
2022-12-05T13:22:27.089Z,101225.59
2022-12-05T13:24:29.031Z,101227.63
2022-12-05T13:26:32.373Z,101218.53
2022-12-05T13:28:38.703Z,101218.44
2022-12-05T13:30:48.504Z,101220.25
2022-12-05T13:32:56.579Z,101215.81
2022-12-05T13:35:01.170Z,101217.34
2022-12-05T13:37:11.536Z,101220.25
2022-12-05T13:39:22.045Z,101222.63
2022-12-05T13:41:39.652Z,101228.47
2022-12-05T13:43:51.051Z,101231.88
2022-12-05T13:46:06.956Z,101232.69
2022-12-05T13:48:22.195Z,101222.84
2022-12-05T13:50:30.058Z,101209.34
2022-12-05T13:52:39.225Z,101225.75
2022-12-05T13:54:45.566Z,101231.09
2022-12-05T13:56:50.540Z,101227.41
2022-12-05T13:58:53.388Z,101227.25
2022-12-05T14:01:44.172Z,101226.63
2022-12-05T14:03:58.997Z,101226.38
2022-12-05T14:06:01.060Z,101224.69
2022-12-05T14:08:47.325Z,101227.13
2022-12-05T14:11:11.512Z,101218.66
2022-12-05T14:13:41.398Z,101228.03
2022-12-05T14:15:44.767Z,101229.72
2022-12-05T14:17:46.352Z,101234.03
2022-12-05T14:20:05.673Z,101213.84
2022-12-05T14:22:21.478Z,101217.50
2022-12-05T14:24:32.449Z,101228.59
2022-12-05T14:26:51.050Z,101222.13
2022-12-05T14:29:05.853Z,101230.25
2022-12-05T14:31:23.878Z,101228.50
2022-12-05T14:33:25.484Z,101232.94
2022-12-05T14:35:28.882Z,101223.13
2022-12-05T14:37:33.332Z,101219.03
2022-12-05T14:39:40.721Z,101219.16
2022-12-05T14:41:44.039Z,101226.69
2022-12-05T14:43:53.512Z,101227.34
2022-12-05T14:45:59.972Z,101216.53
2022-12-05T14:48:03.931Z,101218.19
2022-12-05T14:50:33.776Z,101226.84
2022-12-05T14:52:35.316Z,101223.97
2022-12-05T14:54:38.278Z,101227.72
2022-12-05T14:56:43.823Z,101221.28
2022-12-05T14:58:58.581Z,101225.53
2022-12-05T15:01:05.967Z,101217.34
2022-12-05T15:03:21.957Z,101218.63
2022-12-05T15:05:27.693Z,101228.56
2022-12-05T15:07:33.795Z,101223.00
2022-12-05T15:09:48.728Z,101226.69
2022-12-05T15:11:52.166Z,101223.88
2022-12-05T15:13:56.677Z,101217.16
2022-12-05T15:16:06.202Z,101225.03
2022-12-05T15:18:18.769Z,101222.38
2022-12-05T15:20:37.063Z,101216.38
2022-12-05T15:22:42.002Z,101222.47
2022-12-05T15:24:43.338Z,101230.03
2022-12-05T15:26:48.001Z,101215.63
2022-12-05T15:29:11.547Z,101239.16
2022-12-05T15:31:14.192Z,101237.34
2022-12-05T15:33:15.774Z,101240.13
2022-12-05T15:35:18.145Z,101244.22
2022-12-05T15:37:23.455Z,101246.59
2022-12-05T15:39:26.366Z,101245.75
2022-12-05T15:41:27.926Z,101237.16
2022-12-05T15:43:32.078Z,101238.63
2022-12-05T15:45:35.268Z,101244.06
2022-12-05T15:47:36.977Z,101252.88
2022-12-05T15:49:38.960Z,101247.03
2022-12-05T15:51:40.746Z,101243.34
2022-12-05T15:53:49.351Z,101251.06
2022-12-05T15:55:56.016Z,101252.06
2022-12-05T15:58:11.206Z,101248.25
2022-12-05T16:00:17.196Z,101236.13
2022-12-05T16:02:25.516Z,101249.09
2022-12-05T16:04:32.619Z,101242.25
2022-12-05T16:06:40.243Z,101247.75
2022-12-05T16:08:45.753Z,101252.13
2022-12-05T16:10:47.346Z,101250.75
2022-12-05T16:12:52.125Z,101247.13
2022-12-05T16:15:01.032Z,101242.84
2022-12-05T16:17:03.737Z,101242.69
2022-12-05T16:19:14.965Z,101253.41
2022-12-05T16:21:37.854Z,101247.25
2022-12-05T16:23:40.911Z,101242.84
2022-12-05T16:25:42.453Z,101242.81
2022-12-05T16:27:59.628Z,101244.84
2022-12-05T16:30:08.982Z,101241.78
2022-12-05T16:32:21.218Z,101239.38
2022-12-05T16:34:25.747Z,101244.28
2022-12-05T16:36:27.380Z,101245.41
2022-12-05T16:38:29.189Z,101242.69
2022-12-05T16:40:30.901Z,101248.72
2022-12-05T16:42:32.364Z,101233.69
2022-12-05T16:44:58.950Z,101241.84
2022-12-05T16:47:00.718Z,101238.34
2022-12-05T16:49:16.402Z,101240.19
2022-12-05T16:51:21.446Z,101227.81
2022-12-05T16:53:29.178Z,101225.88
2022-12-05T16:55:35.597Z,101236.31
2022-12-05T16:57:38.478Z,101232.81
2022-12-05T16:59:41.555Z,101235.66
2022-12-05T17:01:43.219Z,101233.69
2022-12-05T17:03:44.902Z,101238.31
2022-12-05T17:05:46.732Z,101238.47
2022-12-05T17:07:49.800Z,101233.03
2022-12-05T17:09:51.461Z,101234.16
2022-12-05T17:11:54.035Z,101229.78
2022-12-05T17:13:57.111Z,101228.84
2022-12-05T17:15:58.747Z,101214.00
2022-12-05T17:18:00.507Z,101233.84
2022-12-05T17:20:02.122Z,101236.66
2022-12-05T17:22:04.630Z,101236.97
2022-12-05T17:24:12.681Z,101229.63
2022-12-05T17:26:14.908Z,101234.75
2022-12-05T17:28:16.538Z,101230.66
2022-12-05T17:30:18.022Z,101237.03
2022-12-05T17:32:19.580Z,101223.91
2022-12-05T17:34:21.255Z,101231.59
2022-12-05T17:36:22.660Z,101229.94
2022-12-05T17:38:24.275Z,101225.13
2022-12-05T17:40:26.995Z,101236.72
2022-12-05T17:42:28.539Z,101236.31
2022-12-05T17:44:30.220Z,101236.31
2022-12-05T17:46:31.780Z,101234.19
2022-12-05T17:48:33.412Z,101238.47
2022-12-05T17:50:34.831Z,101233.44
2022-12-05T17:52:36.484Z,101237.81
2022-12-05T17:54:37.844Z,101233.59
2022-12-05T17:56:41.090Z,101238.06
2022-12-05T17:58:43.980Z,101236.09
2022-12-05T18:00:46.913Z,101235.81
2022-12-05T18:02:48.925Z,101235.88
2022-12-05T18:04:50.680Z,101232.53
2022-12-05T18:06:52.442Z,101232.84
2022-12-05T18:08:54.125Z,101234.66
2022-12-05T18:10:55.858Z,101233.81
2022-12-05T18:12:58.783Z,101242.84
2022-12-05T18:15:00.702Z,101239.13
2022-12-05T18:17:02.915Z,101233.25
2022-12-05T18:19:04.477Z,101236.81
2022-12-05T18:21:08.146Z,101226.00
2022-12-05T18:23:10.067Z,101229.16
2022-12-05T18:25:11.856Z,101240.13
2022-12-05T18:27:13.520Z,101238.38
2022-12-05T18:29:16.313Z,101240.94
2022-12-05T18:31:17.997Z,101240.78
2022-12-05T18:33:19.448Z,101243.59
2022-12-05T18:35:21.029Z,101234.91
2022-12-05T18:37:22.672Z,101239.47
2022-12-05T18:39:24.473Z,101235.00
2022-12-05T18:41:26.262Z,101223.78
2022-12-05T18:43:27.965Z,101231.88
2022-12-05T18:45:30.872Z,101237.34
2022-12-05T18:47:32.628Z,101241.84
2022-12-05T18:49:34.036Z,101237.47
2022-12-05T18:51:35.729Z,101231.09
2022-12-05T18:53:37.365Z,101239.41
2022-12-05T18:56:04.590Z,101234.59
2022-12-05T18:58:00.633Z,101226.13
2022-12-05T19:00:02.136Z,101236.38
2022-12-05T19:02:05.178Z,101238.31
2022-12-05T19:04:08.980Z,101244.63
2022-12-05T19:06:11.960Z,101237.63
2022-12-05T19:08:13.647Z,101235.16
2022-12-05T19:10:15.104Z,101247.22
2022-12-05T19:12:16.837Z,101244.88
2022-12-05T19:14:19.092Z,101249.41
2022-12-05T19:16:20.678Z,101240.59
2022-12-05T19:18:23.439Z,101247.38
2022-12-05T19:20:24.990Z,101247.72
2022-12-05T19:22:29.636Z,101248.63
2022-12-05T19:24:31.143Z,101254.16
2022-12-05T19:26:33.042Z,101258.63
2022-12-05T19:28:35.591Z,101247.44
2022-12-05T19:30:40.257Z,101252.72
2022-12-05T19:32:41.833Z,101256.28
2022-12-05T19:34:44.835Z,101255.97
2022-12-05T19:36:46.555Z,101242.78
2022-12-05T19:38:48.829Z,101254.69
2022-12-05T19:40:55.530Z,101255.75
2022-12-05T19:42:57.087Z,101250.06
2022-12-05T19:45:02.010Z,101253.56
2022-12-05T19:47:06.254Z,101257.03
2022-12-05T19:49:10.651Z,101254.78
2022-12-05T19:51:14.214Z,101249.72
2022-12-05T19:53:15.870Z,101254.16
2022-12-05T19:55:17.329Z,101262.63
2022-12-05T19:57:18.889Z,101261.03
2022-12-05T19:59:20.561Z,101252.28
2022-12-05T20:01:23.484Z,101265.22
2022-12-05T20:03:25.153Z,101263.06
2022-12-05T20:05:26.593Z,101260.81
2022-12-05T20:07:29.507Z,101253.94
2022-12-05T20:09:31.125Z,101262.53
2022-12-05T20:11:32.668Z,101267.94
2022-12-05T20:13:50.225Z,101259.34
2022-12-05T20:15:51.854Z,101265.06
2022-12-05T20:17:53.517Z,101264.91
2022-12-05T20:19:55.157Z,101279.75
2022-12-05T20:21:56.602Z,101267.22
2022-12-05T20:24:00.524Z,101267.94
2022-12-05T20:26:04.224Z,101260.34
2022-12-05T20:28:05.768Z,101263.72
2022-12-05T20:30:08.386Z,101252.88
2022-12-05T20:32:09.921Z,101258.06
2022-12-05T20:34:12.944Z,101260.91
2022-12-05T20:36:16.255Z,101260.34
2022-12-05T20:38:17.843Z,101262.41
2022-12-05T20:40:20.789Z,101266.56
2022-12-05T20:42:22.722Z,101257.97
2022-12-05T20:44:24.624Z,101267.91
2022-12-05T20:46:27.120Z,101263.44
2022-12-05T20:48:28.730Z,101256.53
2022-12-05T20:50:30.283Z,101255.78
2022-12-05T20:52:31.858Z,101262.69
2022-12-05T20:54:33.494Z,101266.47
2022-12-05T20:56:36.493Z,101267.91
2022-12-05T20:58:40.181Z,101267.56
2022-12-05T21:00:41.780Z,101253.75
2022-12-05T21:02:43.459Z,101252.97
2022-12-05T21:04:44.932Z,101260.50
2022-12-05T21:06:46.574Z,101257.91
2022-12-05T21:08:48.035Z,101256.78
2022-12-05T21:10:51.023Z,101258.66
2022-12-05T21:12:54.018Z,101260.66
2022-12-05T21:14:55.630Z,101254.66
2022-12-05T21:16:57.204Z,101255.22
2022-12-05T21:18:59.562Z,101259.09
2022-12-05T21:21:03.122Z,101260.31
2022-12-05T21:23:04.870Z,101247.97
2022-12-05T21:25:06.880Z,101239.72
2022-12-05T21:27:08.509Z,101251.22
2022-12-05T21:29:11.557Z,101252.00
2022-12-05T21:31:14.965Z,101252.09
2022-12-05T21:33:16.665Z,101243.09
2022-12-05T21:35:18.427Z,101249.09
2022-12-05T21:37:19.981Z,101252.28
2022-12-05T21:39:21.514Z,101249.69
2022-12-05T21:41:23.196Z,101238.69
2022-12-05T21:43:24.555Z,101245.41
2022-12-05T21:45:27.504Z,101241.00
2022-12-05T21:47:29.157Z,101245.19
2022-12-05T21:49:30.515Z,101253.72
2022-12-05T21:51:32.154Z,101254.84
2022-12-05T21:53:33.765Z,101258.31
2022-12-05T21:55:35.301Z,101245.09
2022-12-05T21:57:36.960Z,101250.59
2022-12-05T21:59:38.378Z,101256.84
2022-12-05T22:01:41.649Z,101250.78
2022-12-05T22:03:43.398Z,101257.31
2022-12-05T22:05:44.791Z,101263.84
2022-12-05T22:07:46.698Z,101259.38
2022-12-05T22:09:48.420Z,101254.91
2022-12-05T22:11:49.842Z,101261.28
2022-12-05T22:13:52.330Z,101248.03
2022-12-05T22:15:57.805Z,101261.00
2022-12-05T22:18:00.817Z,101250.66
2022-12-05T22:20:02.573Z,101251.59
2022-12-05T22:22:04.329Z,101252.41
2022-12-05T22:24:06.004Z,101247.13
2022-12-05T22:26:09.649Z,101248.38
2022-12-05T22:28:11.223Z,101243.16
2022-12-05T22:30:13.223Z,101230.81
2022-12-05T22:32:14.921Z,101236.72
2022-12-05T22:34:17.826Z,101237.75
2022-12-05T22:36:20.295Z,101238.91
2022-12-05T22:38:22.264Z,101234.28
2022-12-05T22:40:23.861Z,101232.03
2022-12-05T22:42:26.734Z,101229.13
2022-12-05T22:44:28.350Z,101228.81
2022-12-05T22:46:29.976Z,101230.09
2022-12-05T22:48:31.371Z,101220.34
2022-12-05T22:50:34.933Z,101222.72
2022-12-05T22:52:37.149Z,101223.03
2022-12-05T22:54:38.706Z,101218.53
2022-12-05T22:56:40.353Z,101205.59
2022-12-05T22:58:42.078Z,101206.25
2022-12-05T23:00:43.909Z,101205.53
2022-12-05T23:02:45.530Z,101207.97
2022-12-05T23:04:47.090Z,101207.16
2022-12-05T23:06:50.092Z,101204.38
2022-12-05T23:08:51.818Z,101206.19
2022-12-05T23:10:56.675Z,101199.38
2022-12-05T23:12:58.221Z,101195.63
2022-12-05T23:14:59.775Z,101184.84
2022-12-05T23:17:01.358Z,101197.44
2022-12-05T23:19:05.122Z,101198.53
2022-12-05T23:21:06.762Z,101186.81
2022-12-05T23:23:09.717Z,101197.31
2022-12-05T23:25:11.315Z,101190.44
2022-12-05T23:27:12.957Z,101192.03
2022-12-05T23:29:14.786Z,101195.50
2022-12-05T23:31:16.680Z,101190.28
2022-12-05T23:33:18.433Z,101186.75
2022-12-05T23:35:20.181Z,101186.25
2022-12-05T23:37:21.842Z,101187.63
2022-12-05T23:39:24.610Z,101183.06
2022-12-05T23:41:26.314Z,101180.97
2022-12-05T23:43:28.108Z,101184.44
2022-12-05T23:45:29.703Z,101174.47
2022-12-05T23:47:31.209Z,101184.81
2022-12-05T23:49:32.790Z,101169.28